sensor_id;sensor_type;location;lat;lon;timestamp;pressure;altitude;pressure_sealevel;temperature;humidity
11676;BME280;5894;42.768;23.404;2023-05-20T00:02:27;95958.34;;;14.14;100.00
11676;BME280;5894;42.768;23.404;2023-05-20T00:04:54;95960.53;;;14.12;100.00
11676;BME280;5894;42.768;23.404;2023-05-20T00:07:21;95960.22;;;14.14;100.00
11676;BME280;5894;42.768;23.404;2023-05-20T00:09:48;95945.72;;;14.11;100.00
11676;BME280;5894;42.768;23.404;2023-05-20T00:12:16;95957.25;;;14.07;100.00
11676;BME280;5894;42.768;23.404;2023-05-20T00:14:43;95969.75;;;14.06;100.00
11676;BME280;5894;42.768;23.404;2023-05-20T00:17:11;95948.84;;;14.05;100.00
11676;BME280;5894;42.768;23.404;2023-05-20T00:19:39;95950.56;;;14.01;100.00
11676;BME280;5894;42.768;23.404;2023-05-20T00:22:06;95948.06;;;13.95;100.00
11676;BME280;5894;42.768;23.404;2023-05-20T00:24:33;95943.72;;;13.91;100.00
11676;BME280;5894;42.768;23.404;2023-05-20T00:27:00;95941.38;;;13.89;100.00
11676;BME280;5894;42.768;23.404;2023-05-20T00:29:28;95940.13;;;13.87;100.00
11676;BME280;5894;42.768;23.404;2023-05-20T00:31:56;95936.22;;;13.84;100.00
11676;BME280;5894;42.768;23.404;2023-05-20T00:34:25;95934.03;;;13.86;100.00
11676;BME280;5894;42.768;23.404;2023-05-20T00:36:52;95942.00;;;13.86;100.00
11676;BME280;5894;42.768;23.404;2023-05-20T00:39:19;95928.44;;;13.79;100.00
11676;BME280;5894;42.768;23.404;2023-05-20T00:41:46;95930.44;;;13.82;100.00
11676;BME280;5894;42.768;23.404;2023-05-20T00:44:13;95932.00;;;13.83;100.00
11676;BME280;5894;42.768;23.404;2023-05-20T00:46:40;95925.78;;;13.79;100.00
11676;BME280;5894;42.768;23.404;2023-05-20T00:49:07;95928.13;;;13.89;100.00
11676;BME280;5894;42.768;23.404;2023-05-20T00:51:36;95928.72;;;13.86;100.00
11676;BME280;5894;42.768;23.404;2023-05-20T00:54:03;95924.81;;;13.84;100.00
11676;BME280;5894;42.768;23.404;2023-05-20T00:56:30;95928.44;;;13.79;100.00
11676;BME280;5894;42.768;23.404;2023-05-20T00:58:57;95938.69;;;13.72;100.00
11676;BME280;5894;42.768;23.404;2023-05-20T01:01:26;95943.88;;;13.69;100.00
11676;BME280;5894;42.768;23.404;2023-05-20T01:03:53;95944.47;;;13.66;100.00
11676;BME280;5894;42.768;23.404;2023-05-20T01:06:20;95943.56;;;13.70;100.00
11676;BME280;5894;42.768;23.404;2023-05-20T01:08:49;95940.75;;;13.67;100.00
11676;BME280;5894;42.768;23.404;2023-05-20T01:11:21;95947.91;;;13.49;100.00
11676;BME280;5894;42.768;23.404;2023-05-20T01:13:55;95940.88;;;13.44;100.00
11676;BME280;5894;42.768;23.404;2023-05-20T01:16:24;95939.00;;;13.45;100.00
11676;BME280;5894;42.768;23.404;2023-05-20T01:18:54;95939.63;;;13.42;100.00
11676;BME280;5894;42.768;23.404;2023-05-20T01:21:22;95939.13;;;13.31;100.00
11676;BME280;5894;42.768;23.404;2023-05-20T01:23:50;95933.81;;;13.31;100.00
11676;BME280;5894;42.768;23.404;2023-05-20T01:26:18;95929.00;;;13.33;100.00
11676;BME280;5894;42.768;23.404;2023-05-20T01:28:46;95936.47;;;13.31;100.00
11676;BME280;5894;42.768;23.404;2023-05-20T01:31:19;95929.16;;;13.28;100.00
11676;BME280;5894;42.768;23.404;2023-05-20T01:33:53;95924.09;;;13.09;100.00
11676;BME280;5894;42.768;23.404;2023-05-20T01:36:22;95913.13;;;12.85;100.00
11676;BME280;5894;42.768;23.404;2023-05-20T01:38:53;95939.41;;;12.73;100.00
11676;BME280;5894;42.768;23.404;2023-05-20T01:41:22;95935.63;;;12.65;100.00
11676;BME280;5894;42.768;23.404;2023-05-20T01:43:52;95917.81;;;12.57;100.00
11676;BME280;5894;42.768;23.404;2023-05-20T01:46:20;95929.88;;;12.72;100.00
11676;BME280;5894;42.768;23.404;2023-05-20T01:48:48;95926.94;;;12.73;100.00
11676;BME280;5894;42.768;23.404;2023-05-20T01:51:15;95931.22;;;12.92;100.00
11676;BME280;5894;42.768;23.404;2023-05-20T01:53:42;95929.31;;;12.83;100.00
11676;BME280;5894;42.768;23.404;2023-05-20T01:56:11;95934.13;;;12.81;100.00
11676;BME280;5894;42.768;23.404;2023-05-20T01:58:38;95926.66;;;12.83;100.00
11676;BME280;5894;42.768;23.404;2023-05-20T02:01:05;95934.91;;;12.82;100.00
11676;BME280;5894;42.768;23.404;2023-05-20T02:03:32;95929.00;;;12.85;100.00
11676;BME280;5894;42.768;23.404;2023-05-20T02:05:59;95929.50;;;12.87;100.00
11676;BME280;5894;42.768;23.404;2023-05-20T02:08:26;95925.28;;;12.86;100.00
11676;BME280;5894;42.768;23.404;2023-05-20T02:10:53;95914.06;;;12.89;100.00
11676;BME280;5894;42.768;23.404;2023-05-20T02:13:22;95912.19;;;12.90;100.00
11676;BME280;5894;42.768;23.404;2023-05-20T02:15:50;95904.88;;;12.86;100.00
11676;BME280;5894;42.768;23.404;2023-05-20T02:18:17;95905.63;;;12.78;100.00
11676;BME280;5894;42.768;23.404;2023-05-20T02:20:45;95912.06;;;12.86;100.00
11676;BME280;5894;42.768;23.404;2023-05-20T02:23:13;95913.94;;;12.94;100.00
11676;BME280;5894;42.768;23.404;2023-05-20T02:25:40;95922.16;;;12.84;100.00
11676;BME280;5894;42.768;23.404;2023-05-20T02:28:09;95922.75;;;12.81;100.00
11676;BME280;5894;42.768;23.404;2023-05-20T02:30:38;95914.28;;;12.62;100.00
11676;BME280;5894;42.768;23.404;2023-05-20T02:33:05;95921.31;;;12.66;100.00
11676;BME280;5894;42.768;23.404;2023-05-20T02:35:35;95921.00;;;12.68;100.00
11676;BME280;5894;42.768;23.404;2023-05-20T02:38:02;95919.41;;;12.58;100.00
11676;BME280;5894;42.768;23.404;2023-05-20T02:40:29;95917.66;;;12.45;100.00
11676;BME280;5894;42.768;23.404;2023-05-20T02:42:57;95837.34;;;11.79;100.00
11676;BME280;5894;42.768;23.404;2023-05-20T02:45:26;95883.06;;;12.10;100.00
11676;BME280;5894;42.768;23.404;2023-05-20T02:47:54;95906.84;;;12.33;100.00
11676;BME280;5894;42.768;23.404;2023-05-20T02:50:22;95911.69;;;12.39;100.00
11676;BME280;5894;42.768;23.404;2023-05-20T02:52:49;95916.53;;;12.46;100.00
11676;BME280;5894;42.768;23.404;2023-05-20T02:55:17;95916.69;;;12.41;100.00
11676;BME280;5894;42.768;23.404;2023-05-20T02:57:54;95917.66;;;12.45;100.00
11676;BME280;5894;42.768;23.404;2023-05-20T03:00:21;95919.19;;;12.46;100.00
11676;BME280;5894;42.768;23.404;2023-05-20T03:02:49;95924.94;;;12.48;100.00
11676;BME280;5894;42.768;23.404;2023-05-20T03:05:17;95932.06;;;12.39;100.00
11676;BME280;5894;42.768;23.404;2023-05-20T03:07:44;95941.53;;;12.31;100.00
11676;BME280;5894;42.768;23.404;2023-05-20T03:10:13;95937.91;;;12.27;100.00
11676;BME280;5894;42.768;23.404;2023-05-20T03:12:40;95940.06;;;12.25;100.00
11676;BME280;5894;42.768;23.404;2023-05-20T03:15:08;95938.09;;;12.31;100.00
11676;BME280;5894;42.768;23.404;2023-05-20T03:17:37;95938.28;;;12.34;100.00
11676;BME280;5894;42.768;23.404;2023-05-20T03:20:05;95938.47;;;12.46;100.00
11676;BME280;5894;42.768;23.404;2023-05-20T03:22:34;95941.69;;;12.35;100.00
11676;BME280;5894;42.768;23.404;2023-05-20T03:25:02;95938.03;;;12.44;100.00
11676;BME280;5894;42.768;23.404;2023-05-20T03:27:29;95938.03;;;12.44;100.00
11676;BME280;5894;42.768;23.404;2023-05-20T03:29:57;95937.06;;;12.40;100.00
11676;BME280;5894;42.768;23.404;2023-05-20T03:32:24;95928.00;;;12.33;100.00
11676;BME280;5894;42.768;23.404;2023-05-20T03:34:51;95935.78;;;12.38;100.00
11676;BME280;5894;42.768;23.404;2023-05-20T03:37:19;95938.16;;;12.17;100.00
11676;BME280;5894;42.768;23.404;2023-05-20T03:39:47;95934.09;;;12.11;100.00
11676;BME280;5894;42.768;23.404;2023-05-20T03:42:14;95934.97;;;12.06;100.00
11676;BME280;5894;42.768;23.404;2023-05-20T03:44:42;95941.56;;;12.18;100.00
11676;BME280;5894;42.768;23.404;2023-05-20T03:47:09;95943.44;;;12.17;100.00
11676;BME280;5894;42.768;23.404;2023-05-20T03:49:36;95939.72;;;12.18;100.00
11676;BME280;5894;42.768;23.404;2023-05-20T03:52:05;95945.84;;;12.27;100.00
11676;BME280;5894;42.768;23.404;2023-05-20T03:54:33;95942.91;;;12.29;100.00
11676;BME280;5894;42.768;23.404;2023-05-20T03:57:03;95950.28;;;12.40;100.00
11676;BME280;5894;42.768;23.404;2023-05-20T03:59:30;95949.78;;;12.38;100.00
11676;BME280;5894;42.768;23.404;2023-05-20T04:01:57;95955.75;;;12.44;100.00
11676;BME280;5894;42.768;23.404;2023-05-20T04:04:24;95962.75;;;12.48;100.00
11676;BME280;5894;42.768;23.404;2023-05-20T04:06:51;95960.91;;;12.49;100.00
11676;BME280;5894;42.768;23.404;2023-05-20T04:09:19;95956.09;;;12.51;100.00
11676;BME280;5894;42.768;23.404;2023-05-20T04:11:46;95957.19;;;12.50;100.00
11676;BME280;5894;42.768;23.404;2023-05-20T04:14:15;95965.91;;;12.50;100.00
11676;BME280;5894;42.768;23.404;2023-05-20T04:16:42;95965.91;;;12.50;100.00
11676;BME280;5894;42.768;23.404;2023-05-20T04:19:09;95967.16;;;12.53;100.00
11676;BME280;5894;42.768;23.404;2023-05-20T04:21:37;95953.56;;;12.46;100.00
11676;BME280;5894;42.768;23.404;2023-05-20T04:24:05;95969.50;;;12.55;100.00
11676;BME280;5894;42.768;23.404;2023-05-20T04:26:32;95969.84;;;12.62;100.00
11676;BME280;5894;42.768;23.404;2023-05-20T04:29:00;95970.47;;;12.67;100.00
11676;BME280;5894;42.768;23.404;2023-05-20T04:31:30;95977.22;;;12.73;100.00
11676;BME280;5894;42.768;23.404;2023-05-20T04:33:57;95980.50;;;12.79;100.00
11676;BME280;5894;42.768;23.404;2023-05-20T04:36:26;95978.94;;;12.78;100.00
11676;BME280;5894;42.768;23.404;2023-05-20T04:38:54;95974.63;;;12.82;100.00
11676;BME280;5894;42.768;23.404;2023-05-20T04:41:21;95976.81;;;12.88;100.00
11676;BME280;5894;42.768;23.404;2023-05-20T04:43:49;95978.38;;;12.90;100.00
11676;BME280;5894;42.768;23.404;2023-05-20T04:46:16;95973.44;;;12.97;100.00
11676;BME280;5894;42.768;23.404;2023-05-20T04:48:44;95973.28;;;13.02;100.00
11676;BME280;5894;42.768;23.404;2023-05-20T04:51:12;95971.75;;;13.09;100.00
11676;BME280;5894;42.768;23.404;2023-05-20T04:53:40;95977.44;;;13.16;100.00
11676;BME280;5894;42.768;23.404;2023-05-20T04:56:08;95981.47;;;13.22;100.00
11676;BME280;5894;42.768;23.404;2023-05-20T04:58:35;95979.03;;;13.35;100.00
11676;BME280;5894;42.768;23.404;2023-05-20T05:01:02;95978.91;;;13.48;100.00
11676;BME280;5894;42.768;23.404;2023-05-20T05:03:29;95985.63;;;13.54;100.00
11676;BME280;5894;42.768;23.404;2023-05-20T05:05:58;95974.59;;;13.70;100.00
11676;BME280;5894;42.768;23.404;2023-05-20T05:08:25;95933.41;;;13.46;100.00
11676;BME280;5894;42.768;23.404;2023-05-20T05:10:53;95976.16;;;13.88;100.00
11676;BME280;5894;42.768;23.404;2023-05-20T05:13:20;95977.09;;;14.01;100.00
11676;BME280;5894;42.768;23.404;2023-05-20T05:15:47;95967.41;;;14.22;100.00
11676;BME280;5894;42.768;23.404;2023-05-20T05:18:14;95969.38;;;14.33;100.00
11676;BME280;5894;42.768;23.404;2023-05-20T05:20:43;95971.91;;;14.47;100.00
11676;BME280;5894;42.768;23.404;2023-05-20T05:23:13;95976.06;;;14.65;100.00
11676;BME280;5894;42.768;23.404;2023-05-20T05:25:40;95981.03;;;14.84;100.00
11676;BME280;5894;42.768;23.404;2023-05-20T05:28:07;95923.63;;;14.54;100.00
11676;BME280;5894;42.768;23.404;2023-05-20T05:30:34;95989.34;;;15.12;100.00
11676;BME280;5894;42.768;23.404;2023-05-20T05:33:02;95988.63;;;15.32;100.00
11676;BME280;5894;42.768;23.404;2023-05-20T05:35:29;95986.97;;;15.49;100.00
11676;BME280;5894;42.768;23.404;2023-05-20T05:37:56;95988.13;;;15.68;100.00
11676;BME280;5894;42.768;23.404;2023-05-20T05:40:24;95986.78;;;15.83;100.00
11676;BME280;5894;42.768;23.404;2023-05-20T05:42:52;95980.13;;;15.98;100.00
11676;BME280;5894;42.768;23.404;2023-05-20T05:45:20;95983.41;;;16.15;100.00
11676;BME280;5894;42.768;23.404;2023-05-20T05:47:47;95986.13;;;16.28;100.00
11676;BME280;5894;42.768;23.404;2023-05-20T05:50:14;95976.72;;;16.42;100.00
11676;BME280;5894;42.768;23.404;2023-05-20T05:52:41;95988.97;;;16.56;100.00
11676;BME280;5894;42.768;23.404;2023-05-20T05:55:10;95987.03;;;16.65;100.00
11676;BME280;5894;42.768;23.404;2023-05-20T05:57:39;95982.97;;;16.79;100.00
11676;BME280;5894;42.768;23.404;2023-05-20T06:00:08;95984.31;;;16.85;100.00
11676;BME280;5894;42.768;23.404;2023-05-20T06:02:44;95979.88;;;16.90;100.00
11676;BME280;5894;42.768;23.404;2023-05-20T06:05:16;95977.44;;;16.97;100.00
11676;BME280;5894;42.768;23.404;2023-05-20T06:07:44;95969.13;;;17.10;100.00
11676;BME280;5894;42.768;23.404;2023-05-20T06:10:11;95962.91;;;17.18;100.00
11676;BME280;5894;42.768;23.404;2023-05-20T06:12:40;95961.56;;;17.37;100.00
11676;BME280;5894;42.768;23.404;2023-05-20T06:15:08;95957.78;;;17.38;100.00
11676;BME280;5894;42.768;23.404;2023-05-20T06:17:35;95955.66;;;17.55;100.00
11676;BME280;5894;42.768;23.404;2023-05-20T06:20:03;95962.13;;;17.67;100.00
11676;BME280;5894;42.768;23.404;2023-05-20T06:22:30;95963.97;;;17.78;100.00
11676;BME280;5894;42.768;23.404;2023-05-20T06:24:57;95966.75;;;17.94;100.00
11676;BME280;5894;42.768;23.404;2023-05-20T06:27:27;95959.03;;;18.05;100.00
11676;BME280;5894;42.768;23.404;2023-05-20T06:29:56;95960.19;;;18.19;100.00
11676;BME280;5894;42.768;23.404;2023-05-20T06:32:23;95951.00;;;18.32;100.00
11676;BME280;5894;42.768;23.404;2023-05-20T06:34:51;95953.72;;;18.48;100.00
11676;BME280;5894;42.768;23.404;2023-05-20T06:37:18;95956.69;;;18.59;100.00
11676;BME280;5894;42.768;23.404;2023-05-20T06:39:49;95952.06;;;18.72;100.00
11676;BME280;5894;42.768;23.404;2023-05-20T06:42:19;95917.28;;;18.56;100.00
11676;BME280;5894;42.768;23.404;2023-05-20T06:45:02;95951.28;;;19.02;100.00
11676;BME280;5894;42.768;23.404;2023-05-20T06:47:41;95949.81;;;19.21;100.00
11676;BME280;5894;42.768;23.404;2023-05-20T06:50:09;95943.34;;;19.37;100.00
11676;BME280;5894;42.768;23.404;2023-05-20T06:52:37;95942.69;;;19.44;100.00
11676;BME280;5894;42.768;23.404;2023-05-20T06:55:06;95890.81;;;19.29;100.00
11676;BME280;5894;42.768;23.404;2023-05-20T06:57:34;95937.72;;;19.77;100.00
11676;BME280;5894;42.768;23.404;2023-05-20T07:00:03;95938.59;;;20.01;100.00
11676;BME280;5894;42.768;23.404;2023-05-20T07:02:34;95943.53;;;20.18;100.00
11676;BME280;5894;42.768;23.404;2023-05-20T07:05:01;95952.25;;;20.34;100.00
11676;BME280;5894;42.768;23.404;2023-05-20T07:07:28;95950.22;;;20.28;100.00
11676;BME280;5894;42.768;23.404;2023-05-20T07:09:56;95946.41;;;20.48;100.00
11676;BME280;5894;42.768;23.404;2023-05-20T07:12:24;95943.28;;;20.65;100.00
11676;BME280;5894;42.768;23.404;2023-05-20T07:14:51;95941.16;;;20.74;99.76
11676;BME280;5894;42.768;23.404;2023-05-20T07:17:22;95944.00;;;20.62;100.00
11676;BME280;5894;42.768;23.404;2023-05-20T07:19:50;95934.41;;;20.84;100.00
11676;BME280;5894;42.768;23.404;2023-05-20T07:22:17;95923.00;;;21.13;100.00
11676;BME280;5894;42.768;23.404;2023-05-20T07:24:53;95941.88;;;21.43;100.00
11676;BME280;5894;42.768;23.404;2023-05-20T07:27:21;95931.22;;;21.47;97.17
11676;BME280;5894;42.768;23.404;2023-05-20T07:29:48;95939.25;;;21.47;90.46
11676;BME280;5894;42.768;23.404;2023-05-20T07:32:15;95928.78;;;21.38;95.74
11676;BME280;5894;42.768;23.404;2023-05-20T07:34:45;95929.28;;;21.47;97.26
11676;BME280;5894;42.768;23.404;2023-05-20T07:37:12;95926.84;;;21.65;92.70
11676;BME280;5894;42.768;23.404;2023-05-20T07:39:41;95925.09;;;21.76;89.94
11676;BME280;5894;42.768;23.404;2023-05-20T07:42:09;95926.94;;;21.99;86.95
11676;BME280;5894;42.768;23.404;2023-05-20T07:44:39;95932.56;;;22.20;85.83
11676;BME280;5894;42.768;23.404;2023-05-20T07:47:06;95927.69;;;22.32;82.30
11676;BME280;5894;42.768;23.404;2023-05-20T07:49:33;95931.25;;;22.40;78.02
11676;BME280;5894;42.768;23.404;2023-05-20T07:52:02;95931.47;;;22.28;79.71
11676;BME280;5894;42.768;23.404;2023-05-20T07:54:29;95927.47;;;22.48;78.08
11676;BME280;5894;42.768;23.404;2023-05-20T07:56:57;95923.50;;;22.72;75.73
11676;BME280;5894;42.768;23.404;2023-05-20T07:59:25;95922.97;;;23.00;74.07
11676;BME280;5894;42.768;23.404;2023-05-20T08:01:52;95920.41;;;23.18;77.21
11676;BME280;5894;42.768;23.404;2023-05-20T08:04:20;95921.63;;;23.24;76.01
11676;BME280;5894;42.768;23.404;2023-05-20T08:06:51;95915.53;;;23.30;77.10
11676;BME280;5894;42.768;23.404;2023-05-20T08:09:27;95921.00;;;23.45;75.28
11676;BME280;5894;42.768;23.404;2023-05-20T08:11:55;95916.94;;;23.72;73.04
11676;BME280;5894;42.768;23.404;2023-05-20T08:14:22;95908.22;;;24.00;68.83
11676;BME280;5894;42.768;23.404;2023-05-20T08:16:51;95908.25;;;24.03;65.07
11676;BME280;5894;42.768;23.404;2023-05-20T08:19:18;95903.22;;;23.98;62.46
11676;BME280;5894;42.768;23.404;2023-05-20T08:21:47;95910.84;;;23.82;63.96
11676;BME280;5894;42.768;23.404;2023-05-20T08:24:15;95911.66;;;23.86;61.89
11676;BME280;5894;42.768;23.404;2023-05-20T08:26:44;95903.22;;;23.98;62.89
11676;BME280;5894;42.768;23.404;2023-05-20T08:29:11;95908.16;;;23.82;60.86
11676;BME280;5894;42.768;23.404;2023-05-20T08:31:39;95908.91;;;23.79;62.55
11676;BME280;5894;42.768;23.404;2023-05-20T08:34:06;95902.78;;;23.86;61.95
11676;BME280;5894;42.768;23.404;2023-05-20T08:36:33;95904.69;;;23.82;61.27
11676;BME280;5894;42.768;23.404;2023-05-20T08:39:00;95901.59;;;23.76;61.52
11676;BME280;5894;42.768;23.404;2023-05-20T08:41:28;95897.28;;;23.61;62.70
11676;BME280;5894;42.768;23.404;2023-05-20T08:43:58;95903.81;;;23.60;63.87
11676;BME280;5894;42.768;23.404;2023-05-20T08:46:27;95897.69;;;23.63;62.51
11676;BME280;5894;42.768;23.404;2023-05-20T08:48:55;95897.25;;;23.54;62.39
11676;BME280;5894;42.768;23.404;2023-05-20T08:51:26;95894.09;;;23.48;63.14
11676;BME280;5894;42.768;23.404;2023-05-20T08:53:53;95902.88;;;23.38;62.48
11676;BME280;5894;42.768;23.404;2023-05-20T08:56:21;95896.19;;;23.14;63.45
11676;BME280;5894;42.768;23.404;2023-05-20T08:58:51;95898.09;;;23.10;65.24
11676;BME280;5894;42.768;23.404;2023-05-20T09:01:23;95855.09;;;22.69;68.10
11676;BME280;5894;42.768;23.404;2023-05-20T09:03:50;95917.47;;;22.82;65.49
11676;BME280;5894;42.768;23.404;2023-05-20T09:06:18;95904.78;;;22.83;65.34
11676;BME280;5894;42.768;23.404;2023-05-20T09:08:47;95893.00;;;22.98;64.23
11676;BME280;5894;42.768;23.404;2023-05-20T09:11:14;95890.34;;;23.05;65.37
11676;BME280;5894;42.768;23.404;2023-05-20T09:13:42;95888.78;;;23.00;65.55
11676;BME280;5894;42.768;23.404;2023-05-20T09:16:09;95892.44;;;22.78;66.89
11676;BME280;5894;42.768;23.404;2023-05-20T09:18:39;95888.81;;;22.63;64.98
11676;BME280;5894;42.768;23.404;2023-05-20T09:21:06;95878.94;;;22.71;66.46
11676;BME280;5894;42.768;23.404;2023-05-20T09:23:35;95848.81;;;22.51;67.92
11676;BME280;5894;42.768;23.404;2023-05-20T09:26:03;95754.84;;;21.81;65.03
11676;BME280;5894;42.768;23.404;2023-05-20T09:28:30;95874.91;;;22.54;66.06
11676;BME280;5894;42.768;23.404;2023-05-20T09:30:57;95869.13;;;22.49;67.02
11676;BME280;5894;42.768;23.404;2023-05-20T09:33:26;95872.53;;;22.46;67.87
11676;BME280;5894;42.768;23.404;2023-05-20T09:36:02;95830.06;;;22.18;68.18
11676;BME280;5894;42.768;23.404;2023-05-20T09:38:33;95866.38;;;22.42;67.39
11676;BME280;5894;42.768;23.404;2023-05-20T09:41:05;95863.59;;;22.34;66.26
11676;BME280;5894;42.768;23.404;2023-05-20T09:43:33;95856.31;;;22.31;67.80
11676;BME280;5894;42.768;23.404;2023-05-20T09:46:01;95863.19;;;22.29;65.30
11676;BME280;5894;42.768;23.404;2023-05-20T09:48:28;95854.75;;;22.30;67.26
11676;BME280;5894;42.768;23.404;2023-05-20T09:50:56;95850.47;;;22.26;68.92
11676;BME280;5894;42.768;23.404;2023-05-20T09:53:26;95843.66;;;22.36;69.50
11676;BME280;5894;42.768;23.404;2023-05-20T09:55:54;95840.34;;;22.49;65.43
11676;BME280;5894;42.768;23.404;2023-05-20T09:58:21;95838.88;;;22.59;64.74
11676;BME280;5894;42.768;23.404;2023-05-20T10:00:49;95836.13;;;22.52;67.52
11676;BME280;5894;42.768;23.404;2023-05-20T10:03:16;95833.84;;;22.54;67.74
11676;BME280;5894;42.768;23.404;2023-05-20T10:05:51;95832.41;;;22.67;66.30
11676;BME280;5894;42.768;23.404;2023-05-20T10:08:35;95827.84;;;22.75;64.92
11676;BME280;5894;42.768;23.404;2023-05-20T10:11:12;95830.22;;;22.76;65.32
11676;BME280;5894;42.768;23.404;2023-05-20T10:13:56;95826.41;;;22.81;67.82
11676;BME280;5894;42.768;23.404;2023-05-20T10:16:33;95826.66;;;22.68;62.59
11676;BME280;5894;42.768;23.404;2023-05-20T10:19:11;95819.34;;;22.65;63.83
11676;BME280;5894;42.768;23.404;2023-05-20T10:21:39;95816.41;;;22.78;65.29
11676;BME280;5894;42.768;23.404;2023-05-20T10:24:09;95811.06;;;22.85;65.11
11676;BME280;5894;42.768;23.404;2023-05-20T10:26:37;95806.06;;;22.83;63.25
11676;BME280;5894;42.768;23.404;2023-05-20T10:29:14;95811.72;;;22.75;64.34
11676;BME280;5894;42.768;23.404;2023-05-20T10:31:47;95764.59;;;22.37;63.30
11676;BME280;5894;42.768;23.404;2023-05-20T10:34:16;95766.88;;;22.34;62.67
11676;BME280;5894;42.768;23.404;2023-05-20T10:36:45;95812.44;;;22.68;65.12
11676;BME280;5894;42.768;23.404;2023-05-20T10:39:15;95783.94;;;22.53;62.52
11676;BME280;5894;42.768;23.404;2023-05-20T10:41:43;95800.88;;;22.60;62.71
11676;BME280;5894;42.768;23.404;2023-05-20T10:44:10;95794.75;;;22.63;65.41
11676;BME280;5894;42.768;23.404;2023-05-20T10:46:37;95789.81;;;22.69;67.38
11676;BME280;5894;42.768;23.404;2023-05-20T10:49:05;95791.03;;;22.75;63.20
11676;BME280;5894;42.768;23.404;2023-05-20T10:51:43;95790.28;;;22.78;63.28
11676;BME280;5894;42.768;23.404;2023-05-20T10:54:12;95785.75;;;22.89;66.73
11676;BME280;5894;42.768;23.404;2023-05-20T10:56:50;95784.16;;;22.81;65.59
11676;BME280;5894;42.768;23.404;2023-05-20T10:59:18;95787.97;;;22.77;63.76
11676;BME280;5894;42.768;23.404;2023-05-20T11:01:46;95768.69;;;22.71;64.89
11676;BME280;5894;42.768;23.404;2023-05-20T11:04:14;95780.69;;;22.81;68.20
11676;BME280;5894;42.768;23.404;2023-05-20T11:06:49;95757.25;;;22.78;66.04
11676;BME280;5894;42.768;23.404;2023-05-20T11:09:16;95774.16;;;22.78;65.64
11676;BME280;5894;42.768;23.404;2023-05-20T11:11:45;95776.06;;;22.78;65.90
11676;BME280;5894;42.768;23.404;2023-05-20T11:14:12;95720.59;;;22.55;63.54
11676;BME280;5894;42.768;23.404;2023-05-20T11:16:40;95696.25;;;22.30;63.29
11676;BME280;5894;42.768;23.404;2023-05-20T11:19:08;95766.34;;;22.66;62.78
11676;BME280;5894;42.768;23.404;2023-05-20T11:21:42;95767.03;;;22.56;64.10
11676;BME280;5894;42.768;23.404;2023-05-20T11:24:09;95762.06;;;22.58;62.20
11676;BME280;5894;42.768;23.404;2023-05-20T11:26:37;95755.59;;;22.66;65.29
11676;BME280;5894;42.768;23.404;2023-05-20T11:29:08;95752.13;;;22.65;64.35
11676;BME280;5894;42.768;23.404;2023-05-20T11:31:36;95744.78;;;22.55;65.22
11676;BME280;5894;42.768;23.404;2023-05-20T11:34:04;95743.13;;;22.40;63.99
11676;BME280;5894;42.768;23.404;2023-05-20T11:36:31;95743.06;;;22.33;63.28
11676;BME280;5894;42.768;23.404;2023-05-20T11:38:59;95742.25;;;22.25;64.23
11676;BME280;5894;42.768;23.404;2023-05-20T11:41:26;95739.16;;;22.23;64.89
11676;BME280;5894;42.768;23.404;2023-05-20T11:43:57;95721.44;;;22.15;64.38
11676;BME280;5894;42.768;23.404;2023-05-20T11:46:26;95721.88;;;22.21;66.90
11676;BME280;5894;42.768;23.404;2023-05-20T11:48:54;95723.03;;;22.23;64.43
11676;BME280;5894;42.768;23.404;2023-05-20T11:51:22;95721.88;;;22.21;64.86
11676;BME280;5894;42.768;23.404;2023-05-20T11:53:50;95719.28;;;22.35;66.84
11676;BME280;5894;42.768;23.404;2023-05-20T11:56:19;95720.13;;;22.46;68.63
11676;BME280;5894;42.768;23.404;2023-05-20T11:58:46;95722.13;;;22.56;60.88
11676;BME280;5894;42.768;23.404;2023-05-20T12:01:13;95719.44;;;22.56;64.14
11676;BME280;5894;42.768;23.404;2023-05-20T12:03:42;95725.63;;;22.64;68.69
11676;BME280;5894;42.768;23.404;2023-05-20T12:06:11;95722.31;;;22.81;63.45
11676;BME280;5894;42.768;23.404;2023-05-20T12:08:38;95722.78;;;22.94;62.64
11676;BME280;5894;42.768;23.404;2023-05-20T12:11:05;95720.03;;;22.83;63.57
11676;BME280;5894;42.768;23.404;2023-05-20T12:13:33;95681.16;;;22.74;65.67
11676;BME280;5894;42.768;23.404;2023-05-20T12:16:00;95718.50;;;22.82;64.31
11676;BME280;5894;42.768;23.404;2023-05-20T12:18:28;95719.22;;;22.79;63.25
11676;BME280;5894;42.768;23.404;2023-05-20T12:20:57;95729.94;;;22.72;62.40
11676;BME280;5894;42.768;23.404;2023-05-20T12:23:24;95721.72;;;22.51;62.23
11676;BME280;5894;42.768;23.404;2023-05-20T12:25:51;95726.63;;;22.38;65.20
11676;BME280;5894;42.768;23.404;2023-05-20T12:28:18;95731.19;;;22.34;66.37
11676;BME280;5894;42.768;23.404;2023-05-20T12:30:45;95737.00;;;22.43;62.71
11676;BME280;5894;42.768;23.404;2023-05-20T12:33:12;95759.28;;;22.00;62.83
11676;BME280;5894;42.768;23.404;2023-05-20T12:35:40;95747.97;;;21.80;60.42
11676;BME280;5894;42.768;23.404;2023-05-20T12:38:09;95735.03;;;21.55;57.93
11676;BME280;5894;42.768;23.404;2023-05-20T12:40:36;95739.88;;;21.43;59.44
11676;BME280;5894;42.768;23.404;2023-05-20T12:43:03;95745.47;;;21.31;57.93
11676;BME280;5894;42.768;23.404;2023-05-20T12:45:31;95742.91;;;21.11;59.37
11676;BME280;5894;42.768;23.404;2023-05-20T12:47:58;95736.22;;;21.24;62.56
11676;BME280;5894;42.768;23.404;2023-05-20T12:50:26;95724.31;;;21.22;60.47
11676;BME280;5894;42.768;23.404;2023-05-20T12:52:53;95716.50;;;21.43;62.33
11676;BME280;5894;42.768;23.404;2023-05-20T12:55:22;95710.78;;;21.45;65.41
11676;BME280;5894;42.768;23.404;2023-05-20T12:57:49;95703.56;;;21.52;65.54
11676;BME280;5894;42.768;23.404;2023-05-20T13:00:16;95711.97;;;21.47;67.40
11676;BME280;5894;42.768;23.404;2023-05-20T13:02:43;95706.53;;;21.44;67.92